Time,TemperatureF,DewpointF,PressureIn,WindDirection,WindDirectionDegrees,WindSpeedMPH,WindSpeedGustMPH,Humidity,HourlyPrecipIn,Conditions,Clouds,dailyrainin,SoftwareType,DateUTC
2013-04-08 00:22:00,67.1,57.8,29.96,ESE,112,3.7,-999.0,72,-99.99,,,0.00,Acu-Link.com,2013-04-08 04:22:00,
2013-04-08 00:37:00,66.9,58.0,29.95,East,90,4.2,-999.0,73,-99.99,,,0.00,Acu-Link.com,2013-04-08 04:37:00,
2013-04-08 00:52:00,66.9,58.3,29.96,East,90,4.7,-999.0,74,-99.99,,,0.00,Acu-Link.com,2013-04-08 04:52:00,
2013-04-08 01:07:00,66.9,58.7,29.96,East,90,3.7,-999.0,75,-99.99,,,0.00,Acu-Link.com,2013-04-08 05:07:00,
2013-04-08 01:22:00,66.6,59.2,29.96,East,90,3.2,-999.0,77,-99.99,,,0.00,Acu-Link.com,2013-04-08 05:22:00,
2013-04-08 01:38:00,66.4,59.3,29.96,East,90,3.7,-999.0,78,-99.99,,,0.00,Acu-Link.com,2013-04-08 05:38:00,
2013-04-08 01:53:00,66.2,59.1,29.95,East,90,5.3,-999.0,78,-99.99,,,0.00,Acu-Link.com,2013-04-08 05:53:00,
2013-04-08 02:08:00,66.0,58.9,29.95,ESE,112,4.2,-999.0,78,-99.99,,,0.00,Acu-Link.com,2013-04-08 06:08:00,
2013-04-08 02:23:00,65.8,58.7,29.94,ESE,112,0.0,-999.0,78,-99.99,,,0.00,Acu-Link.com,2013-04-08 06:23:00,
2013-04-08 02:38:00,65.3,58.3,29.94,ESE,112,1.1,-999.0,78,-99.99,,,0.00,Acu-Link.com,2013-04-08 06:38:00,
2013-04-08 02:53:00,65.1,58.4,29.94,ESE,112,1.7,-999.0,79,-99.99,,,0.00,Acu-Link.com,2013-04-08 06:53:00,
2013-04-08 03:09:00,65.1,58.4,29.94,SE,135,1.7,-999.0,79,-99.99,,,0.00,Acu-Link.com,2013-04-08 07:09:00,
2013-04-08 03:24:00,65.1,58.4,29.93,SSE,157,0.0,-999.0,79,-99.99,,,0.00,Acu-Link.com,2013-04-08 07:24:00,
2013-04-08 03:39:00,65.3,58.6,29.92,ESE,112,0.0,-999.0,79,-99.99,,,0.00,Acu-Link.com,2013-04-08 07:39:00,
2013-04-08 03:55:00,65.7,59.0,29.92,ESE,112,1.7,-999.0,79,-99.99,,,0.00,Acu-Link.com,2013-04-08 07:55:00,
2013-04-08 04:10:00,65.7,59.0,29.92,ESE,112,0.0,-999.0,79,-99.99,,,0.00,Acu-Link.com,2013-04-08 08:10:00,
2013-04-08 04:25:00,65.7,59.0,29.92,ESE,112,0.0,-999.0,79,-99.99,,,0.00,Acu-Link.com,2013-04-08 08:25:00,
2013-04-08 04:40:00,65.7,59.4,29.91,ESE,112,0.0,-999.0,80,-99.99,,,0.00,Acu-Link.com,2013-04-08 08:40:00,
2013-04-08 04:55:00,65.3,59.0,29.91,ESE,112,0.0,-999.0,80,-99.99,,,0.00,Acu-Link.com,2013-04-08 08:55:00,
2013-04-08 05:10:00,65.1,59.1,29.91,ESE,112,1.1,-999.0,81,-99.99,,,0.00,Acu-Link.com,2013-04-08 09:10:00,
2013-04-08 05:25:00,64.8,58.8,29.92,SSE,157,1.7,-999.0,81,-99.99,,,0.00,Acu-Link.com,2013-04-08 09:25:00,
2013-04-08 05:41:00,64.2,58.2,29.92,ESE,112,1.1,-999.0,81,-99.99,,,0.00,Acu-Link.com,2013-04-08 09:41:00,
2013-04-08 05:56:00,64.0,58.7,29.92,ESE,112,0.0,-999.0,83,-99.99,,,0.00,Acu-Link.com,2013-04-08 09:56:00,
2013-04-08 06:41:00,63.1,58.5,29.94,ESE,112,1.7,-999.0,85,-99.99,,,0.00,Acu-Link.com,2013-04-08 10:41:00,
2013-04-08 06:57:00,63.3,59.0,29.94,SE,135,0.0,-999.0,86,-99.99,,,0.00,Acu-Link.com,2013-04-08 10:57:00,
2013-04-08 07:12:00,62.6,58.7,29.95,SW,225,0.0,-999.0,87,-99.99,,,0.00,Acu-Link.com,2013-04-08 11:12:00,
2013-04-08 07:27:00,64.0,60.7,29.96,East,90,3.7,-999.0,89,-99.99,,,0.00,Acu-Link.com,2013-04-08 11:27:00,
2013-04-08 07:43:00,67.3,63.6,29.96,East,90,2.2,-999.0,88,-99.99,,,0.00,Acu-Link.com,2013-04-08 11:43:00,
2013-04-08 07:58:00,69.3,62.5,29.96,East,90,1.1,-999.0,79,-99.99,,,0.00,Acu-Link.com,2013-04-08 11:58:00,
2013-04-08 08:13:00,72.1,63.3,29.97,ENE,67,0.0,-999.0,74,-99.99,,,0.00,Acu-Link.com,2013-04-08 12:13:00,
2013-04-08 08:44:00,74.5,63.2,29.97,East,90,1.1,-999.0,68,-99.99,,,0.00,Acu-Link.com,2013-04-08 12:44:00,
2013-04-08 08:59:00,73.4,62.6,29.98,ESE,112,1.1,-999.0,69,-99.99,,,0.00,Acu-Link.com,2013-04-08 12:59:00,
2013-04-08 09:14:00,75.0,63.7,29.97,NE,45,1.7,-999.0,68,-99.99,,,0.00,Acu-Link.com,2013-04-08 13:14:00,
2013-04-08 09:29:00,77.2,63.2,29.97,East,90,2.2,-999.0,62,-99.99,,,0.00,Acu-Link.com,2013-04-08 13:29:00,
2013-04-08 09:45:00,78.4,63.3,29.98,ESE,112,4.7,-999.0,60,-99.99,,,0.00,Acu-Link.com,2013-04-08 13:45:00,
2013-04-08 10:00:00,79.3,61.7,29.98,East,90,4.2,-999.0,55,-99.99,,,0.00,Acu-Link.com,2013-04-08 14:00:00,
2013-04-08 10:15:00,76.1,59.2,29.98,ESE,112,5.3,-999.0,56,-99.99,,,0.00,Acu-Link.com,2013-04-08 14:15:00,
2013-04-08 10:30:00,78.3,60.3,29.98,East,90,4.7,-999.0,54,-99.99,,,0.00,Acu-Link.com,2013-04-08 14:30:00,
2013-04-08 10:45:00,78.1,59.0,29.98,ESE,112,4.7,-999.0,52,-99.99,,,0.00,Acu-Link.com,2013-04-08 14:45:00,
2013-04-08 11:00:00,81.0,59.4,29.98,ESE,112,0.0,-999.0,48,-99.99,,,0.00,Acu-Link.com,2013-04-08 15:00:00,
2013-04-08 11:16:00,81.0,58.8,29.98,East,90,6.3,-999.0,47,-99.99,,,0.00,Acu-Link.com,2013-04-08 15:16:00,
2013-04-08 11:46:00,81.3,58.5,29.98,ESE,112,6.8,-999.0,46,-99.99,,,0.00,Acu-Link.com,2013-04-08 15:46:00,
2013-04-08 12:01:00,81.3,59.1,29.99,ESE,112,5.3,-999.0,47,-99.99,,,0.00,Acu-Link.com,2013-04-08 16:01:00,
2013-04-08 12:16:00,80.8,57.5,29.98,East,90,4.7,-999.0,45,-99.99,,,0.00,Acu-Link.com,2013-04-08 16:16:00,
2013-04-08 12:32:00,82.4,58.9,29.97,ESE,112,6.3,-999.0,45,-99.99,,,0.00,Acu-Link.com,2013-04-08 16:32:00,
2013-04-08 12:47:00,82.4,57.6,29.98,ESE,112,5.8,-999.0,43,-99.99,,,0.00,Acu-Link.com,2013-04-08 16:47:00,
2013-04-08 13:17:00,82.6,58.5,29.96,SE,135,4.2,-999.0,44,-99.99,,,0.00,Acu-Link.com,2013-04-08 17:17:00,
2013-04-08 13:32:00,82.8,58.0,29.95,SE,135,2.7,-999.0,43,-99.99,,,0.00,Acu-Link.com,2013-04-08 17:32:00,
2013-04-08 13:48:00,82.9,58.1,29.95,ESE,112,9.4,-999.0,43,-99.99,,,0.02,Acu-Link.com,2013-04-08 17:48:00,
2013-04-08 14:03:00,82.8,58.0,29.94,East,90,6.3,-999.0,43,-99.99,,,0.02,Acu-Link.com,2013-04-08 18:03:00,
2013-04-08 14:18:00,83.5,59.3,29.93,East,90,8.9,-999.0,44,-99.99,,,0.03,Acu-Link.com,2013-04-08 18:18:00,
2013-04-08 14:33:00,82.9,59.4,29.93,SSE,157,6.3,-999.0,45,-99.99,,,0.03,Acu-Link.com,2013-04-08 18:33:00,
2013-04-08 15:04:00,82.8,59.3,29.92,East,90,7.8,-999.0,45,-99.99,,,0.04,Acu-Link.com,2013-04-08 19:04:00,
2013-04-08 15:34:00,82.4,60.1,29.90,ESE,112,4.7,-999.0,47,-99.99,,,0.04,Acu-Link.com,2013-04-08 19:34:00,
2013-04-08 15:49:00,82.6,59.1,29.90,ESE,112,6.8,-999.0,45,-99.99,,,0.04,Acu-Link.com,2013-04-08 19:49:00,
2013-04-08 16:04:00,83.5,59.9,29.90,ESE,112,6.3,-999.0,45,-99.99,,,0.04,Acu-Link.com,2013-04-08 20:04:00,
2013-04-08 16:19:00,83.5,59.9,29.89,East,90,4.7,-999.0,45,-99.99,,,0.04,Acu-Link.com,2013-04-08 20:19:00,
2013-04-08 16:34:00,82.9,60.0,29.89,ESE,112,5.3,-999.0,46,-99.99,,,0.04,Acu-Link.com,2013-04-08 20:34:00,
2013-04-08 16:49:00,83.5,59.3,29.89,ESE,112,5.8,-999.0,44,-99.99,,,0.04,Acu-Link.com,2013-04-08 20:49:00,
2013-04-08 17:05:00,82.9,61.2,29.89,ESE,112,9.4,-999.0,48,-99.99,,,0.04,Acu-Link.com,2013-04-08 21:05:00,
2013-04-08 17:20:00,81.3,60.9,29.89,East,90,7.8,-999.0,50,-99.99,,,0.04,Acu-Link.com,2013-04-08 21:20:00,
2013-04-08 17:35:00,81.0,61.7,29.89,ENE,67,8.9,-999.0,52,-99.99,,,0.04,Acu-Link.com,2013-04-08 21:35:00,
2013-04-08 17:50:00,80.4,61.1,29.89,NE,45,4.2,-999.0,52,-99.99,,,0.04,Acu-Link.com,2013-04-08 21:50:00,
2013-04-08 18:06:00,80.4,61.7,29.89,NE,45,8.9,-999.0,53,-99.99,,,0.04,Acu-Link.com,2013-04-08 22:06:00,
2013-04-08 18:21:00,79.9,61.2,29.90,ESE,112,7.8,-999.0,53,-99.99,,,0.04,Acu-Link.com,2013-04-08 22:21:00,
2013-04-08 18:51:00,79.2,61.1,29.91,ESE,112,4.2,-999.0,54,-99.99,,,0.04,Acu-Link.com,2013-04-08 22:51:00,
2013-04-08 19:07:00,79.0,61.4,29.91,ESE,112,7.3,-999.0,55,-99.99,,,0.04,Acu-Link.com,2013-04-08 23:07:00,
2013-04-08 19:22:00,78.6,61.6,29.91,ESE,112,8.9,-999.0,56,-99.99,,,0.04,Acu-Link.com,2013-04-08 23:22:00,
2013-04-08 19:37:00,78.1,61.6,29.91,East,90,8.3,-999.0,57,-99.99,,,0.04,Acu-Link.com,2013-04-08 23:37:00,
2013-04-08 19:52:00,77.5,61.0,29.92,East,90,6.8,-999.0,57,-99.99,,,0.04,Acu-Link.com,2013-04-08 23:52:00,
2013-04-08 20:08:00,76.6,60.7,29.92,East,90,8.9,-999.0,58,-99.99,,,0.04,Acu-Link.com,2013-04-09 00:08:00,
2013-04-08 20:23:00,75.9,60.5,29.91,ESE,112,9.4,-999.0,59,-99.99,,,0.04,Acu-Link.com,2013-04-09 00:23:00,
2013-04-08 20:38:00,75.4,60.5,29.92,ESE,112,6.8,-999.0,60,-99.99,,,0.04,Acu-Link.com,2013-04-09 00:38:00,
2013-04-08 21:09:00,74.1,60.2,29.93,ESE,112,7.8,-999.0,62,-99.99,,,0.04,Acu-Link.com,2013-04-09 01:09:00,
2013-04-08 21:39:00,73.0,59.6,29.95,ESE,112,8.3,-999.0,63,-99.99,,,0.04,Acu-Link.com,2013-04-09 01:39:00,
2013-04-08 21:55:00,72.3,59.4,29.95,East,90,6.3,-999.0,64,-99.99,,,0.04,Acu-Link.com,2013-04-09 01:55:00,
2013-04-08 22:10:00,71.8,59.0,29.96,ESE,112,7.3,-999.0,64,-99.99,,,0.04,Acu-Link.com,2013-04-09 02:10:00,
2013-04-08 22:25:00,71.4,59.9,29.96,ESE,112,4.2,-999.0,67,-99.99,,,0.04,Acu-Link.com,2013-04-09 02:25:00,
2013-04-08 22:41:00,70.9,59.8,29.97,ESE,112,4.7,-999.0,68,-99.99,,,0.04,Acu-Link.com,2013-04-09 02:41:00,
2013-04-08 23:11:00,70.0,59.4,29.97,ESE,112,5.3,-999.0,69,-99.99,,,0.04,Acu-Link.com,2013-04-09 03:11:00,
2013-04-08 23:26:00,69.6,59.4,29.97,ESE,112,3.7,-999.0,70,-99.99,,,0.04,Acu-Link.com,2013-04-09 03:26:00,
2013-04-08 23:42:00,69.3,59.5,29.97,East,90,4.2,-999.0,71,-99.99,,,0.04,Acu-Link.com,2013-04-09 03:42:00,
2013-04-08 23:57:00,68.7,59.3,29.97,ESE,112,3.2,-999.0,72,-99.99,,,0.04,Acu-Link.com,2013-04-09 03:57:00,